Coastal Inspiration — CFN4970 — position and weather

sailwx.info

Track history (hours):
 
Tides and Currents Weather Stations Pressure Air Temp Water Temp Dewpoint Dewpoint Depression Visibility Wind Speed Wind Dir Waves Ship Positions

Coastal Inspiration

Last reported at 2017-Nov-20 00:30 UTC. Time now 2017-Nov-22 15:02 UTC.
Position N 48°46' W 123°21'.

Length 160 m; draft 5.6 m.

Type: Passenger vessel. MMSI: 316011408.

Date/timePositionNaut miles runAvg speedWind from/ knotsBaromVisibWave heightAir tempDewpointWater temp
2017-Nov-20 00:30N 48°46' W 123°21'5 0.2
2017-Nov-18 23:26N 48°42' W 123°24'716.0
2017-Nov-18 23:00N 48°48' W 123°21'714.9
2017-Nov-18 22:30N 48°55' W 123°17'815.8
2017-Nov-18 22:00N 49°00' W 123°08'0 0.4
2017-Nov-18 21:28N 49°00' W 123°08'815.9
2017-Nov-18 21:00N 48°54' W 123°15'815.6
2017-Nov-18 20:30N 48°48' W 123°21'6 0.3
2017-Nov-18 03:18N 48°42' W 123°22'619.4
2017-Nov-18 03:00N 48°47' W 123°21'816.7
2017-Nov-18 02:30N 48°55' W 123°16'714.7
2017-Nov-18 02:00N 49°00' W 123°08'0 0.3
2017-Nov-18 01:30N 49°00' W 123°08'1018.9
2017-Nov-18 01:00N 48°53' W 123°17'713.5
2017-Nov-18 00:30N 48°47' W 123°21'6 5.2
2017-Nov-17 23:27N 48°42' W 123°24'716.2
2017-Nov-17 22:59N 48°49' W 123°21'714.9
2017-Nov-17 22:30N 48°55' W 123°16'713.9
2017-Nov-17 21:58N 49°00' W 123°08'0 0.2
2017-Nov-17 21:30N 49°00' W 123°08'815.6
2017-Nov-17 20:59N 48°54' W 123°16'815.6
2017-Nov-17 20:29N 48°47' W 123°21'6 0.3
2017-Nov-17 03:22N 48°42' W 123°24'615.7
2017-Nov-17 03:00N 48°47' W 123°21'816.5
2017-Nov-17 02:30N 48°55' W 123°16'815.7
2017-Nov-17 02:00N 49°00' W 123°08'0 0.1
2017-Nov-17 01:30N 49°00' W 123°08'816.0
2017-Nov-17 01:00N 48°54' W 123°16'714.3
2017-Nov-17 00:29N 48°47' W 123°20'6 0.1
2017-Nov-14 23:34N 48°41' W 123°24'0 5.4
2017-Nov-14 23:30N 48°42' W 123°24'815.5
2017-Nov-14 22:59N 48°49' W 123°21'815.4
2017-Nov-14 22:30N 48°56' W 123°15'713.4
2017-Nov-14 22:00N 49°00' W 123°08'0 0.6
2017-Nov-14 21:30N 49°00' W 123°08'815.7
2017-Nov-14 21:00N 48°54' W 123°15'816.5
2017-Nov-14 20:30N 48°46' W 123°20'5 5.7
2017-Nov-14 19:33N 48°42' W 123°24'114.4
2017-Nov-14 19:28N 48°42' W 123°22'818.3
2017-Nov-14 19:00N 48°50' W 123°21'714.7
2017-Nov-14 18:30N 48°56' W 123°15'612.2
2017-Nov-14 18:00N 49°00' W 123°08'0 0.8
2017-Nov-14 17:30N 49°00' W 123°08'815.6
2017-Nov-14 17:00N 48°54' W 123°15'816.1
2017-Nov-14 16:29N 48°46' W 123°21'6 5.2
2017-Nov-14 15:24N 48°41' W 123°25'0 0.0
2017-Nov-14 08:07N 48°41' W 123°24'214.8
2017-Nov-14 08:00N 48°42' W 123°22'1019.3
2017-Nov-14 07:30N 48°51' W 123°21'917.4
2017-Nov-14 07:00N 48°58' W 123°12'4 7.2
2017-Nov-14 06:30N 49°00' W 123°08'3 5.2
2017-Nov-14 06:00N 48°58' W 123°10'918.4
2017-Nov-14 05:30N 48°52' W 123°20'918.8
2017-Nov-14 05:00N 48°42' W 123°22'0 0.4
2017-Nov-14 04:04N 48°42' W 123°22'219.4
2017-Nov-14 03:58N 48°43' W 123°21'817.5
2017-Nov-14 03:30N 48°52' W 123°20'1018.8
2017-Nov-14 03:00N 48°59' W 123°10'2 4.3
2017-Nov-14 02:30N 49°00' W 123°08'2 3.5
2017-Nov-14 01:59N 48°59' W 123°09'2 4.6
2017-Nov-14 01:30N 48°57' W 123°11'817.0
2017-Nov-14 01:00N 48°52' W 123°21'10 0.5
2017-Nov-13 02:00N 49°01' W 123°13'4 7.4
2017-Nov-13 01:30N 49°00' W 123°08'5 9.0
2017-Nov-13 01:00N 49°01' W 123°15'918.0
2017-Nov-13 00:29N 49°05' W 123°27'917.6
2017-Nov-13 00:00N 49°10' W 123°38'3 1.3
2017-Nov-12 21:59N 49°11' W 123°41'1021.3
2017-Nov-12 21:30N 49°06' W 123°27'1121.1
2017-Nov-12 21:00N 49°01' W 123°13'4 7.0
2017-Nov-12 20:30N 49°00' W 123°08'4 8.3
2017-Nov-12 20:00N 49°00' W 123°14'1019.6
2017-Nov-12 19:29N 49°05' W 123°28'1019.8
2017-Nov-12 18:59N 49°11' W 123°41'5 0.3
2017-Nov-12 03:23N 49°13' W 123°48'718.5
2017-Nov-12 03:00N 49°10' W 123°38'1018.6
2017-Nov-12 02:29N 49°05' W 123°25'918.3
2017-Nov-12 01:59N 49°01' W 123°13'4 7.2
2017-Nov-12 01:29N 49°00' W 123°08'511.4
2017-Nov-12 01:00N 49°01' W 123°16'917.5
2017-Nov-12 00:29N 49°05' W 123°28'817.6
2017-Nov-12 00:00N 49°10' W 123°39'2 1.3
2017-Nov-11 22:03N 49°12' W 123°42'120.7
2017-Nov-11 22:00N 49°11' W 123°40'1021.1
2017-Nov-11 21:31N 49°06' W 123°27'1020.7
2017-Nov-11 21:00N 49°01' W 123°13'3 6.7
2017-Nov-11 20:30N 49°00' W 123°08'3 6.5
2017-Nov-11 19:59N 48°60' W 123°13'919.0
2017-Nov-11 19:30N 49°04' W 123°26'1018.6
2017-Nov-11 18:58N 49°10' W 123°37'8 4.7
2017-Nov-11 17:13N 49°14' W 123°48'520.9
2017-Nov-11 17:00N 49°12' W 123°42'1121.0
2017-Nov-11 16:30N 49°08' W 123°27'1120.7
2017-Nov-11 15:58N 49°01' W 123°14'4 8.3
2017-Nov-11 15:30N 49°00' W 123°08'3 6.5
2017-Nov-11 15:00N 49°00' W 123°13'1019.6
2017-Nov-11 14:30N 49°04' W 123°26'1019.9
2017-Nov-11 14:00N 49°10' W 123°39'7 1.1
2017-Nov-11 08:20N 49°13' W 123°47'720.0
2017-Nov-11 07:58N 49°11' W 123°37'1020.4
2017-Nov-11 07:30N 49°06' W 123°25'1019.4
2017-Nov-11 06:59N 49°00' W 123°12'2 5.1
2017-Nov-11 06:30N 49°00' W 123°08'510.2
2017-Nov-11 06:00N 49°00' W 123°16'1019.0
2017-Nov-11 05:30N 49°05' W 123°28'918.9
2017-Nov-11 05:00N 49°10' W 123°40'2 0.9
2017-Nov-11 03:16N 49°12' W 123°42'620.3
2017-Nov-11 02:57N 49°09' W 123°33'1020.2
2017-Nov-11 02:29N 49°04' W 123°20'918.7
2017-Nov-11 02:00N 49°00' W 123°08'0 0.7
2017-Nov-11 01:30N 49°00' W 123°08'4 7.1
2017-Nov-11 01:00N 48°60' W 123°13'1019.9
2017-Nov-11 00:30N 49°03' W 123°28'1019.6
2017-Nov-11 00:00N 49°10' W 123°38'6 3.7
2017-Nov-10 22:15N 49°13' W 123°47'520.5
2017-Nov-10 21:59N 49°11' W 123°40'1020.5
2017-Nov-10 21:30N 49°06' W 123°26'1020.0
2017-Nov-10 21:00N 49°00' W 123°14'4 7.5
2017-Nov-10 20:30N 49°00' W 123°08'1 2.8
2017-Nov-10 20:00N 48°60' W 123°10'1019.8
2017-Nov-10 19:30N 49°03' W 123°24'1120.2
2017-Nov-10 18:59N 49°09' W 123°37'6 3.1
2017-Nov-10 17:08N 49°12' W 123°45'320.1
2017-Nov-10 16:57N 49°11' W 123°40'920.3
2017-Nov-10 16:30N 49°07' W 123°28'1120.2
2017-Nov-10 15:58N 49°01' W 123°14'4 8.1
2017-Nov-10 15:30N 49°00' W 123°08'3 5.5
2017-Nov-10 15:00N 49°00' W 123°12'1019.1
2017-Nov-10 14:30N 49°04' W 123°25'1019.4
2017-Nov-10 14:00N 49°10' W 123°38'7 1.3
2017-Nov-10 08:17N 49°14' W 123°47'620.8
2017-Nov-10 08:00N 49°11' W 123°39'1021.1
2017-Nov-10 07:30N 49°06' W 123°25'1019.8
2017-Nov-10 07:00N 49°01' W 123°12'3 5.8
2017-Nov-10 06:31N 49°00' W 123°08'4 7.7
2017-Nov-10 06:01N 49°00' W 123°14'1019.8
2017-Nov-10 05:30N 49°05' W 123°27'1119.6
2017-Nov-10 04:58N 49°11' W 123°41'6 3.8
2017-Nov-10 03:25N 49°13' W 123°49'920.2
2017-Nov-10 03:00N 49°10' W 123°37'1020.6
2017-Nov-10 02:30N 49°05' W 123°23'1019.3
2017-Nov-10 02:00N 49°00' W 123°10'1 2.8
2017-Nov-10 01:30N 49°00' W 123°08'4 8.5
2017-Nov-10 01:00N 48°60' W 123°14'  
Track history (hours):
 
Tides and Currents Weather Stations Pressure Air Temp Water Temp Dewpoint Dewpoint Depression Visibility Wind Speed Wind Dir Waves Ship Positions

Coastal Inspiration

Last reported at 2017-Nov-20 00:30 UTC. Time now 2017-Nov-22 15:02 UTC.
Position N 48°46' W 123°21'.

Length 160 m; draft 5.6 m.

Type: Passenger vessel. MMSI: 316011408.

Date/timePositionNaut miles runAvg speedWind from/ knotsBaromVisibWave heightAir tempDewpointWater temp
2017-Nov-20 00:30N 48°46' W 123°21'5 0.2
2017-Nov-18 23:26N 48°42' W 123°24'716.0
2017-Nov-18 23:00N 48°48' W 123°21'714.9
2017-Nov-18 22:30N 48°55' W 123°17'815.8
2017-Nov-18 22:00N 49°00' W 123°08'0 0.4
2017-Nov-18 21:28N 49°00' W 123°08'815.9
2017-Nov-18 21:00N 48°54' W 123°15'815.6
2017-Nov-18 20:30N 48°48' W 123°21'6 0.3
2017-Nov-18 03:18N 48°42' W 123°22'619.4
2017-Nov-18 03:00N 48°47' W 123°21'816.7
2017-Nov-18 02:30N 48°55' W 123°16'714.7
2017-Nov-18 02:00N 49°00' W 123°08'0 0.3
2017-Nov-18 01:30N 49°00' W 123°08'1018.9
2017-Nov-18 01:00N 48°53' W 123°17'713.5
2017-Nov-18 00:30N 48°47' W 123°21'6 5.2
2017-Nov-17 23:27N 48°42' W 123°24'716.2
2017-Nov-17 22:59N 48°49' W 123°21'714.9
2017-Nov-17 22:30N 48°55' W 123°16'713.9
2017-Nov-17 21:58N 49°00' W 123°08'0 0.2
2017-Nov-17 21:30N 49°00' W 123°08'815.6
2017-Nov-17 20:59N 48°54' W 123°16'815.6
2017-Nov-17 20:29N 48°47' W 123°21'6 0.3
2017-Nov-17 03:22N 48°42' W 123°24'615.7
2017-Nov-17 03:00N 48°47' W 123°21'816.5
2017-Nov-17 02:30N 48°55' W 123°16'815.7
2017-Nov-17 02:00N 49°00' W 123°08'0 0.1
2017-Nov-17 01:30N 49°00' W 123°08'816.0
2017-Nov-17 01:00N 48°54' W 123°16'714.3
2017-Nov-17 00:29N 48°47' W 123°20'6 0.1
2017-Nov-14 23:34N 48°41' W 123°24'0 5.4
2017-Nov-14 23:30N 48°42' W 123°24'815.5
2017-Nov-14 22:59N 48°49' W 123°21'815.4
2017-Nov-14 22:30N 48°56' W 123°15'713.4
2017-Nov-14 22:00N 49°00' W 123°08'0 0.6
2017-Nov-14 21:30N 49°00' W 123°08'815.7
2017-Nov-14 21:00N 48°54' W 123°15'816.5
2017-Nov-14 20:30N 48°46' W 123°20'5 5.7
2017-Nov-14 19:33N 48°42' W 123°24'114.4
2017-Nov-14 19:28N 48°42' W 123°22'818.3
2017-Nov-14 19:00N 48°50' W 123°21'714.7
2017-Nov-14 18:30N 48°56' W 123°15'612.2
2017-Nov-14 18:00N 49°00' W 123°08'0 0.8
2017-Nov-14 17:30N 49°00' W 123°08'815.6
2017-Nov-14 17:00N 48°54' W 123°15'816.1
2017-Nov-14 16:29N 48°46' W 123°21'6 5.2
2017-Nov-14 15:24N 48°41' W 123°25'0 0.0
2017-Nov-14 08:07N 48°41' W 123°24'214.8
2017-Nov-14 08:00N 48°42' W 123°22'1019.3
2017-Nov-14 07:30N 48°51' W 123°21'917.4
2017-Nov-14 07:00N 48°58' W 123°12'4 7.2
2017-Nov-14 06:30N 49°00' W 123°08'3 5.2
2017-Nov-14 06:00N 48°58' W 123°10'918.4
2017-Nov-14 05:30N 48°52' W 123°20'918.8
2017-Nov-14 05:00N 48°42' W 123°22'0 0.4
2017-Nov-14 04:04N 48°42' W 123°22'219.4
2017-Nov-14 03:58N 48°43' W 123°21'817.5
2017-Nov-14 03:30N 48°52' W 123°20'1018.8
2017-Nov-14 03:00N 48°59' W 123°10'2 4.3
2017-Nov-14 02:30N 49°00' W 123°08'2 3.5
2017-Nov-14 01:59N 48°59' W 123°09'2 4.6
2017-Nov-14 01:30N 48°57' W 123°11'817.0
2017-Nov-14 01:00N 48°52' W 123°21'10 0.5
2017-Nov-13 02:00N 49°01' W 123°13'4 7.4
2017-Nov-13 01:30N 49°00' W 123°08'5 9.0
2017-Nov-13 01:00N 49°01' W 123°15'918.0
2017-Nov-13 00:29N 49°05' W 123°27'917.6
2017-Nov-13 00:00N 49°10' W 123°38'3 1.3
2017-Nov-12 21:59N 49°11' W 123°41'1021.3
2017-Nov-12 21:30N 49°06' W 123°27'1121.1
2017-Nov-12 21:00N 49°01' W 123°13'4 7.0
2017-Nov-12 20:30N 49°00' W 123°08'4 8.3
2017-Nov-12 20:00N 49°00' W 123°14'1019.6
2017-Nov-12 19:29N 49°05' W 123°28'1019.8
2017-Nov-12 18:59N 49°11' W 123°41'5 0.3
2017-Nov-12 03:23N 49°13' W 123°48'718.5
2017-Nov-12 03:00N 49°10' W 123°38'1018.6
2017-Nov-12 02:29N 49°05' W 123°25'918.3
2017-Nov-12 01:59N 49°01' W 123°13'4 7.2
2017-Nov-12 01:29N 49°00' W 123°08'511.4
2017-Nov-12 01:00N 49°01' W 123°16'917.5
2017-Nov-12 00:29N 49°05' W 123°28'817.6
2017-Nov-12 00:00N 49°10' W 123°39'2 1.3
2017-Nov-11 22:03N 49°12' W 123°42'120.7
2017-Nov-11 22:00N 49°11' W 123°40'1021.1
2017-Nov-11 21:31N 49°06' W 123°27'1020.7
2017-Nov-11 21:00N 49°01' W 123°13'3 6.7
2017-Nov-11 20:30N 49°00' W 123°08'3 6.5
2017-Nov-11 19:59N 48°60' W 123°13'919.0
2017-Nov-11 19:30N 49°04' W 123°26'1018.6
2017-Nov-11 18:58N 49°10' W 123°37'8 4.7
2017-Nov-11 17:13N 49°14' W 123°48'520.9
2017-Nov-11 17:00N 49°12' W 123°42'1121.0
2017-Nov-11 16:30N 49°08' W 123°27'1120.7
2017-Nov-11 15:58N 49°01' W 123°14'4 8.3
2017-Nov-11 15:30N 49°00' W 123°08'3 6.5
2017-Nov-11 15:00N 49°00' W 123°13'1019.6
2017-Nov-11 14:30N 49°04' W 123°26'1019.9
2017-Nov-11 14:00N 49°10' W 123°39'7 1.1
2017-Nov-11 08:20N 49°13' W 123°47'720.0
2017-Nov-11 07:58N 49°11' W 123°37'1020.4
2017-Nov-11 07:30N 49°06' W 123°25'1019.4
2017-Nov-11 06:59N 49°00' W 123°12'2 5.1
2017-Nov-11 06:30N 49°00' W 123°08'510.2
2017-Nov-11 06:00N 49°00' W 123°16'1019.0
2017-Nov-11 05:30N 49°05' W 123°28'918.9
2017-Nov-11 05:00N 49°10' W 123°40'2 0.9
2017-Nov-11 03:16N 49°12' W 123°42'620.3
2017-Nov-11 02:57N 49°09' W 123°33'1020.2
2017-Nov-11 02:29N 49°04' W 123°20'918.7
2017-Nov-11 02:00N 49°00' W 123°08'0 0.7
2017-Nov-11 01:30N 49°00' W 123°08'4 7.1
2017-Nov-11 01:00N 48°60' W 123°13'1019.9
2017-Nov-11 00:30N 49°03' W 123°28'1019.6
2017-Nov-11 00:00N 49°10' W 123°38'6 3.7
2017-Nov-10 22:15N 49°13' W 123°47'520.5
2017-Nov-10 21:59N 49°11' W 123°40'1020.5
2017-Nov-10 21:30N 49°06' W 123°26'1020.0
2017-Nov-10 21:00N 49°00' W 123°14'4 7.5
2017-Nov-10 20:30N 49°00' W 123°08'1 2.8
2017-Nov-10 20:00N 48°60' W 123°10'1019.8
2017-Nov-10 19:30N 49°03' W 123°24'1120.2
2017-Nov-10 18:59N 49°09' W 123°37'6 3.1
2017-Nov-10 17:08N 49°12' W 123°45'320.1
2017-Nov-10 16:57N 49°11' W 123°40'920.3
2017-Nov-10 16:30N 49°07' W 123°28'1120.2
2017-Nov-10 15:58N 49°01' W 123°14'4 8.1
2017-Nov-10 15:30N 49°00' W 123°08'3 5.5
2017-Nov-10 15:00N 49°00' W 123°12'1019.1
2017-Nov-10 14:30N 49°04' W 123°25'1019.4
2017-Nov-10 14:00N 49°10' W 123°38'7 1.3
2017-Nov-10 08:17N 49°14' W 123°47'620.8
2017-Nov-10 08:00N 49°11' W 123°39'1021.1
2017-Nov-10 07:30N 49°06' W 123°25'1019.8
2017-Nov-10 07:00N 49°01' W 123°12'3 5.8
2017-Nov-10 06:31N 49°00' W 123°08'4 7.7
2017-Nov-10 06:01N 49°00' W 123°14'1019.8
2017-Nov-10 05:30N 49°05' W 123°27'1119.6
2017-Nov-10 04:58N 49°11' W 123°41'6 3.8
2017-Nov-10 03:25N 49°13' W 123°49'920.2
2017-Nov-10 03:00N 49°10' W 123°37'1020.6
2017-Nov-10 02:30N 49°05' W 123°23'1019.3
2017-Nov-10 02:00N 49°00' W 123°10'1 2.8
2017-Nov-10 01:30N 49°00' W 123°08'4 8.5
2017-Nov-10 01:00N 48°60' W 123°14'  

Dump ship's entire track history